Time;durP1;ratioP1;P1;durP2;ratioP2;P2;SDS_P1;SDS_P2;PMS_P1;PMS_P2;Temp;Humidity;BMP_temperature;BMP_pressure;BME280_temperature;BME280_humidity;BME280_pressure;Samples;Min_cycle;Max_cycle;Signal;HPM_P1;HPM_P2
2021/08/31 00:01:05;;;;;;;11.60;10.40;;;;;;;;;;5055539;28;20420;-74
2021/08/31 00:03:31;;;;;;;11.73;10.33;;;;;;;;;;5038679;28;20476;-73
2021/08/31 00:05:57;;;;;;;12.97;11.30;;;;;;;;;;5035356;28;20863;-73
2021/08/31 00:08:23;;;;;;;12.30;10.40;;;;;;;;;;5034841;28;20438;-73
2021/08/31 00:10:49;;;;;;;13.43;10.57;;;;;;;;;;5035527;28;21004;-74
2021/08/31 00:13:15;;;;;;;11.77;10.00;;;;;;;;;;5035731;28;20415;-74
2021/08/31 00:15:41;;;;;;;12.00;10.33;;;;;;;;;;5035754;28;20413;-74
2021/08/31 00:18:10;;;;;;;10.07;9.13;;;;;;;;;;5034157;28;20436;-75
2021/08/31 00:20:36;;;;;;;11.10;9.40;;;;;;;;;;5035116;28;20812;-73
2021/08/31 00:23:02;;;;;;;11.83;10.40;;;;;;;;;;5035073;28;20766;-73
2021/08/31 00:25:28;;;;;;;10.73;9.63;;;;;;;;;;5035228;28;20414;-74
2021/08/31 00:27:54;;;;;;;10.83;9.70;;;;;;;;;;5034630;28;20425;-74
2021/08/31 00:30:20;;;;;;;12.63;10.20;;;;;;;;;;5034916;28;20724;-74
2021/08/31 00:32:46;;;;;;;10.47;9.37;;;;;;;;;;5034601;28;20924;-74
2021/08/31 00:35:12;;;;;;;12.00;10.20;;;;;;;;;;5034929;28;20434;-74
2021/08/31 00:37:38;;;;;;;12.13;9.60;;;;;;;;;;5020386;28;20437;-74
2021/08/31 00:40:05;;;;;;;9.47;8.27;;;;;;;;;;5036548;28;20417;-74
2021/08/31 00:42:31;;;;;;;12.40;9.53;;;;;;;;;;5034744;28;20420;-74
2021/08/31 00:44:57;;;;;;;12.10;9.70;;;;;;;;;;5034582;28;20416;-73
2021/08/31 00:47:23;;;;;;;10.20;9.20;;;;;;;;;;5034055;28;20468;-73
2021/08/31 00:49:49;;;;;;;12.60;9.67;;;;;;;;;;5034033;28;20922;-73
2021/08/31 00:52:15;;;;;;;11.00;8.93;;;;;;;;;;5037307;28;20981;-74
2021/08/31 00:54:42;;;;;;;10.47;9.23;;;;;;;;;;5054314;28;20443;-73
2021/08/31 00:57:08;;;;;;;12.43;10.90;;;;;;;;;;5034360;28;20937;-74
2021/08/31 00:59:34;;;;;;;13.03;10.20;;;;;;;;;;5034198;28;20406;-74
2021/08/31 01:02:01;;;;;;;14.73;9.87;;;;;;;;;;5031997;28;20789;-74
2021/08/31 01:04:31;;;;;;;11.87;10.60;;;;;;;;;;5034382;28;20413;-75
2021/08/31 01:06:58;;;;;;;11.60;10.40;;;;;;;;;;5032800;28;20510;-74
2021/08/31 01:09:24;;;;;;;11.93;10.73;;;;;;;;;;5041269;28;20413;-74
2021/08/31 01:11:51;;;;;;;13.03;11.10;;;;;;;;;;5054336;28;20499;-74
2021/08/31 01:14:17;;;;;;;12.60;10.80;;;;;;;;;;5041749;28;20431;-74
2021/08/31 01:16:44;;;;;;;13.80;11.80;;;;;;;;;;5020619;28;20532;-74
2021/08/31 01:19:11;;;;;;;15.83;11.47;;;;;;;;;;5031018;28;20429;-74
2021/08/31 01:21:37;;;;;;;13.10;10.63;;;;;;;;;;5031977;28;20435;-74
2021/08/31 01:24:03;;;;;;;11.93;10.70;;;;;;;;;;5033686;28;20755;-75
2021/08/31 01:26:29;;;;;;;12.00;10.80;;;;;;;;;;5033972;28;20416;-74
2021/08/31 01:28:55;;;;;;;13.37;10.63;;;;;;;;;;5029300;28;20429;-74
2021/08/31 01:31:21;;;;;;;12.03;10.80;;;;;;;;;;5033524;28;20877;-74
2021/08/31 01:33:47;;;;;;;14.80;12.10;;;;;;;;;;5033384;28;20448;-74
2021/08/31 01:36:21;;;;;;;14.30;11.53;;;;;;;;;;5033556;28;20515;-74
2021/08/31 01:38:48;;;;;;;12.90;10.67;;;;;;;;;;5041745;28;20432;-75
2021/08/31 01:41:14;;;;;;;12.17;10.30;;;;;;;;;;5033633;28;20412;-74
2021/08/31 01:43:40;;;;;;;17.83;10.83;;;;;;;;;;5033373;28;20475;-74
2021/08/31 01:46:06;;;;;;;13.73;11.20;;;;;;;;;;5033482;28;20456;-74
2021/08/31 01:48:32;;;;;;;11.73;10.30;;;;;;;;;;5033161;28;20436;-73
2021/08/31 01:50:58;;;;;;;13.33;10.20;;;;;;;;;;5030883;28;20462;-74
2021/08/31 01:53:24;;;;;;;15.27;11.33;;;;;;;;;;5033100;28;20508;-73
2021/08/31 01:55:50;;;;;;;12.60;10.40;;;;;;;;;;5030375;28;20825;-73
2021/08/31 01:58:16;;;;;;;13.73;10.20;;;;;;;;;;5028064;28;20428;-73
2021/08/31 02:00:42;;;;;;;13.43;11.40;;;;;;;;;;5032629;28;20494;-73
2021/08/31 02:03:08;;;;;;;12.50;11.20;;;;;;;;;;5033121;28;20893;-74
2021/08/31 02:05:34;;;;;;;12.67;10.60;;;;;;;;;;5032872;28;20451;-73
2021/08/31 02:08:00;;;;;;;22.70;11.07;;;;;;;;;;5028383;28;20542;-73
2021/08/31 02:10:27;;;;;;;15.13;11.20;;;;;;;;;;5033224;28;20846;-74
2021/08/31 02:12:53;;;;;;;14.20;10.67;;;;;;;;;;5033311;28;20499;-74
2021/08/31 02:15:20;;;;;;;11.90;10.37;;;;;;;;;;5032902;28;20508;-73
2021/08/31 02:17:46;;;;;;;14.33;10.10;;;;;;;;;;5032534;28;20517;-74
2021/08/31 02:20:12;;;;;;;13.40;10.77;;;;;;;;;;5035944;28;20425;-74
2021/08/31 02:22:39;;;;;;;14.80;10.77;;;;;;;;;;5030444;28;20443;-74
2021/08/31 02:25:05;;;;;;;12.07;9.97;;;;;;;;;;5046052;28;20972;-74
2021/08/31 02:27:31;;;;;;;12.63;10.60;;;;;;;;;;5032387;28;20448;-74
2021/08/31 02:29:57;;;;;;;15.03;10.90;;;;;;;;;;5032723;28;20423;-73
2021/08/31 02:32:23;;;;;;;14.23;10.80;;;;;;;;;;5031588;28;20547;-74
2021/08/31 02:34:50;;;;;;;14.53;11.27;;;;;;;;;;5025264;28;20585;-74
2021/08/31 02:37:16;;;;;;;14.33;10.77;;;;;;;;;;5022303;28;20448;-74
2021/08/31 02:39:42;;;;;;;14.33;10.53;;;;;;;;;;5033050;28;20415;-73
2021/08/31 02:42:08;;;;;;;13.60;10.63;;;;;;;;;;5036985;28;20416;-74
2021/08/31 02:44:34;;;;;;;13.27;10.83;;;;;;;;;;5037111;28;20415;-72
2021/08/31 02:47:00;;;;;;;12.67;10.07;;;;;;;;;;5036053;28;20812;-73
2021/08/31 02:49:26;;;;;;;13.57;10.87;;;;;;;;;;5036507;28;20436;-73
2021/08/31 02:51:52;;;;;;;12.67;10.77;;;;;;;;;;5036311;28;20471;-74
2021/08/31 02:54:19;;;;;;;14.80;10.37;;;;;;;;;;5036870;28;20797;-73
2021/08/31 02:56:45;;;;;;;13.23;10.70;;;;;;;;;;5029380;28;21012;-74
2021/08/31 02:59:11;;;;;;;13.37;10.80;;;;;;;;;;5056812;28;20549;-74
2021/08/31 03:01:39;;;;;;;12.67;10.57;;;;;;;;;;5037561;28;20463;-73
2021/08/31 03:04:05;;;;;;;13.00;10.00;;;;;;;;;;5036058;28;20432;-74
2021/08/31 03:06:32;;;;;;;12.47;10.07;;;;;;;;;;5034815;28;20924;-74
2021/08/31 03:08:58;;;;;;;13.80;10.77;;;;;;;;;;5034866;28;20427;-73
2021/08/31 03:11:24;;;;;;;12.50;10.57;;;;;;;;;;5049481;28;20461;-74
2021/08/31 03:13:51;;;;;;;14.63;11.23;;;;;;;;;;5021962;28;20421;-74
2021/08/31 03:16:17;;;;;;;14.00;11.37;;;;;;;;;;5046631;28;20415;-74
2021/08/31 03:18:43;;;;;;;13.57;10.67;;;;;;;;;;5021925;28;20452;-74
2021/08/31 03:21:09;;;;;;;18.57;12.97;;;;;;;;;;5036216;28;20439;-74
2021/08/31 03:23:35;;;;;;;14.37;11.50;;;;;;;;;;5036127;28;20432;-73
2021/08/31 03:26:02;;;;;;;12.30;10.43;;;;;;;;;;5036160;28;20421;-73
2021/08/31 03:28:28;;;;;;;16.30;11.90;;;;;;;;;;5035535;28;20459;-74
2021/08/31 03:30:55;;;;;;;15.70;10.90;;;;;;;;;;5035891;28;20472;-74
2021/08/31 03:33:21;;;;;;;16.77;11.30;;;;;;;;;;5035837;28;20515;-74
2021/08/31 03:35:47;;;;;;;19.13;12.17;;;;;;;;;;5030021;28;20508;-73
2021/08/31 03:38:13;;;;;;;12.80;10.97;;;;;;;;;;5049944;28;20577;-74
2021/08/31 03:40:39;;;;;;;14.40;12.47;;;;;;;;;;5044066;28;20755;-74
2021/08/31 03:43:05;;;;;;;14.13;11.27;;;;;;;;;;5036159;28;20490;-74
2021/08/31 03:45:31;;;;;;;15.70;10.30;;;;;;;;;;5035962;28;20416;-74
2021/08/31 03:47:57;;;;;;;14.17;11.17;;;;;;;;;;5033912;28;20494;-73
2021/08/31 03:50:23;;;;;;;13.30;10.70;;;;;;;;;;5035549;28;20885;-74
2021/08/31 03:52:49;;;;;;;13.30;10.47;;;;;;;;;;5034568;28;20464;-74
2021/08/31 03:55:15;;;;;;;13.37;11.97;;;;;;;;;;5036099;28;20417;-73
2021/08/31 03:57:41;;;;;;;14.20;11.30;;;;;;;;;;5033663;28;20487;-74
2021/08/31 04:00:07;;;;;;;13.67;10.70;;;;;;;;;;5035158;28;20456;-74
2021/08/31 04:02:33;;;;;;;12.83;10.77;;;;;;;;;;5035273;28;20996;-73
2021/08/31 04:04:59;;;;;;;14.13;11.00;;;;;;;;;;5035338;28;20535;-73
2021/08/31 04:07:25;;;;;;;14.27;11.10;;;;;;;;;;5030470;28;20551;-74
2021/08/31 04:09:51;;;;;;;13.70;11.00;;;;;;;;;;5033859;28;20853;-74
2021/08/31 04:12:17;;;;;;;13.83;11.43;;;;;;;;;;5035409;28;20979;-73
2021/08/31 04:14:44;;;;;;;13.97;10.83;;;;;;;;;;5045648;28;20427;-74
2021/08/31 04:17:10;;;;;;;13.27;11.03;;;;;;;;;;5051674;28;20486;-73
2021/08/31 04:19:36;;;;;;;13.70;11.10;;;;;;;;;;5034717;28;20428;-74
2021/08/31 04:22:02;;;;;;;20.53;12.67;;;;;;;;;;5036766;28;20436;-73
2021/08/31 04:24:28;;;;;;;15.68;10.88;;;;;;;;;;5039156;28;20412;-73
2021/08/31 04:26:54;;;;;;;16.83;11.37;;;;;;;;;;5034588;28;20634;-73
2021/08/31 04:29:20;;;;;;;18.57;13.20;;;;;;;;;;5034973;28;20514;-74
2021/08/31 04:31:46;;;;;;;13.87;11.37;;;;;;;;;;5034743;28;20543;-73
2021/08/31 04:34:12;;;;;;;15.47;11.70;;;;;;;;;;5032964;28;20424;-73
2021/08/31 04:36:38;;;;;;;17.50;12.80;;;;;;;;;;5034340;28;20425;-74
2021/08/31 04:39:04;;;;;;;15.73;13.10;;;;;;;;;;5030650;28;20428;-73
2021/08/31 04:41:30;;;;;;;17.03;12.37;;;;;;;;;;5034816;28;20469;-74
2021/08/31 04:43:56;;;;;;;16.80;11.50;;;;;;;;;;5034859;28;20424;-73
2021/08/31 04:46:22;;;;;;;16.70;11.73;;;;;;;;;;5034509;28;20423;-73
2021/08/31 04:48:48;;;;;;;19.90;10.77;;;;;;;;;;5033837;28;20449;-73
2021/08/31 04:51:14;;;;;;;13.70;12.23;;;;;;;;;;5034908;28;20464;-74
2021/08/31 04:53:40;;;;;;;12.53;11.23;;;;;;;;;;5034195;28;20435;-73
2021/08/31 04:56:06;;;;;;;16.00;11.20;;;;;;;;;;5032843;28;20813;-74
2021/08/31 04:58:32;;;;;;;15.93;12.00;;;;;;;;;;5034190;28;20790;-74
2021/08/31 05:00:58;;;;;;;14.70;12.20;;;;;;;;;;5034381;28;20437;-73
2021/08/31 05:03:24;;;;;;;12.10;10.80;;;;;;;;;;5043614;28;20652;-73
2021/08/31 05:05:50;;;;;;;14.00;11.97;;;;;;;;;;5054259;28;20464;-73
2021/08/31 05:08:17;;;;;;;18.03;12.93;;;;;;;;;;5028488;28;20459;-73
2021/08/31 05:10:43;;;;;;;14.30;11.43;;;;;;;;;;5032418;28;20472;-73
2021/08/31 05:13:09;;;;;;;19.07;11.17;;;;;;;;;;5034586;28;20547;-73
2021/08/31 05:15:35;;;;;;;13.80;10.20;;;;;;;;;;5034302;28;20884;-73
2021/08/31 05:18:01;;;;;;;13.73;11.03;;;;;;;;;;5053746;28;20435;-73
2021/08/31 05:20:28;;;;;;;16.20;11.10;;;;;;;;;;5036847;28;20901;-72
2021/08/31 05:22:54;;;;;;;12.87;10.10;;;;;;;;;;5033974;28;20423;-72
2021/08/31 05:25:20;;;;;;;13.90;10.97;;;;;;;;;;5033881;28;20498;-73
2021/08/31 05:27:46;;;;;;;14.47;11.60;;;;;;;;;;5033305;28;20448;-73
2021/08/31 05:30:13;;;;;;;16.30;11.80;;;;;;;;;;5033773;28;20424;-74
2021/08/31 05:32:39;;;;;;;15.70;11.03;;;;;;;;;;5032262;28;20468;-74
2021/08/31 05:35:05;;;;;;;14.83;11.57;;;;;;;;;;5033833;28;20483;-72
2021/08/31 05:37:31;;;;;;;13.90;11.60;;;;;;;;;;5032369;28;20483;-73
2021/08/31 05:39:57;;;;;;;12.67;10.90;;;;;;;;;;5030740;28;20451;-73
2021/08/31 05:42:23;;;;;;;14.40;11.53;;;;;;;;;;5038298;28;20926;-76
2021/08/31 05:44:49;;;;;;;16.47;12.20;;;;;;;;;;5031755;28;20471;-73
2021/08/31 05:47:15;;;;;;;14.30;11.20;;;;;;;;;;5027471;28;20480;-74
2021/08/31 05:49:42;;;;;;;13.40;11.40;;;;;;;;;;5033601;28;20872;-74
2021/08/31 05:52:08;;;;;;;15.60;11.80;;;;;;;;;;5039200;28;20486;-73
2021/08/31 05:54:34;;;;;;;16.13;11.77;;;;;;;;;;5051307;28;20473;-73
2021/08/31 05:57:04;;;;;;;17.10;11.70;;;;;;;;;;5032620;28;20455;-73
2021/08/31 05:59:30;;;;;;;17.10;11.03;;;;;;;;;;5031622;28;20873;-74
2021/08/31 06:01:56;;;;;;;18.40;11.43;;;;;;;;;;5033261;28;20413;-74
2021/08/31 06:04:25;;;;;;;12.40;10.13;;;;;;;;;;5037310;28;20455;-73
2021/08/31 06:06:51;;;;;;;12.10;9.80;;;;;;;;;;5041222;28;20571;-74
2021/08/31 06:09:17;;;;;;;14.10;10.07;;;;;;;;;;5033335;28;20417;-75
2021/08/31 06:11:44;;;;;;;13.57;11.00;;;;;;;;;;5033040;28;20471;-75
2021/08/31 06:14:10;;;;;;;14.10;11.20;;;;;;;;;;5042494;28;20421;-74
2021/08/31 06:16:36;;;;;;;15.63;10.80;;;;;;;;;;5032331;28;20964;-74
2021/08/31 06:19:03;;;;;;;13.40;11.13;;;;;;;;;;5032726;28;20478;-74
2021/08/31 06:21:30;;;;;;;17.50;11.10;;;;;;;;;;5033031;28;20801;-75
2021/08/31 06:23:56;;;;;;;13.67;10.47;;;;;;;;;;5032889;28;20416;-73
2021/08/31 06:26:23;;;;;;;15.33;11.43;;;;;;;;;;5032939;28;20560;-74
2021/08/31 06:28:49;;;;;;;13.70;10.33;;;;;;;;;;5032283;28;20763;-74
2021/08/31 06:31:15;;;;;;;14.87;11.37;;;;;;;;;;5032708;28;20465;-75
2021/08/31 06:33:45;;;;;;;14.20;11.00;;;;;;;;;;5032687;28;20416;-74
2021/08/31 06:36:11;;;;;;;12.73;9.77;;;;;;;;;;5033231;28;20412;-73
2021/08/31 06:38:37;;;;;;;12.60;10.27;;;;;;;;;;5032337;28;20516;-74
2021/08/31 06:41:04;;;;;;;12.87;10.20;;;;;;;;;;5032799;28;20495;-74
2021/08/31 06:43:30;;;;;;;13.93;10.27;;;;;;;;;;5032511;28;20463;-74
2021/08/31 06:45:56;;;;;;;12.90;10.23;;;;;;;;;;5030967;28;20739;-73
2021/08/31 06:48:22;;;;;;;10.60;9.20;;;;;;;;;;5052218;28;20448;-73
2021/08/31 06:50:48;;;;;;;11.33;10.10;;;;;;;;;;5045732;28;20413;-73
2021/08/31 06:53:14;;;;;;;12.90;10.67;;;;;;;;;;5025492;28;20449;-72
2021/08/31 06:55:41;;;;;;;12.53;10.00;;;;;;;;;;5020377;28;20458;-72
2021/08/31 06:58:08;;;;;;;13.47;10.70;;;;;;;;;;5019558;28;20455;-73
2021/08/31 07:00:34;;;;;;;11.30;9.40;;;;;;;;;;5033477;28;20460;-74
2021/08/31 07:03:00;;;;;;;12.90;9.50;;;;;;;;;;5043000;28;20439;-73
2021/08/31 07:05:26;;;;;;;13.23;10.37;;;;;;;;;;5028897;28;20434;-73
2021/08/31 07:07:52;;;;;;;12.87;9.10;;;;;;;;;;5026590;28;20453;-73
2021/08/31 07:10:18;;;;;;;15.50;10.60;;;;;;;;;;5029347;28;20904;-73
2021/08/31 07:12:44;;;;;;;11.27;9.47;;;;;;;;;;5032378;28;20992;-73
2021/08/31 07:15:10;;;;;;;12.23;9.67;;;;;;;;;;5022845;28;20872;-73
2021/08/31 07:17:36;;;;;;;10.53;8.77;;;;;;;;;;5027992;28;20456;-73
2021/08/31 07:20:03;;;;;;;10.50;9.40;;;;;;;;;;5017068;28;20428;-73
2021/08/31 07:22:29;;;;;;;10.90;9.20;;;;;;;;;;5028243;28;20518;-74
2021/08/31 07:24:55;;;;;;;10.07;8.97;;;;;;;;;;5023045;28;20467;-74
2021/08/31 07:27:21;;;;;;;13.57;10.03;;;;;;;;;;5030826;28;20455;-74
2021/08/31 07:29:47;;;;;;;13.37;9.63;;;;;;;;;;5030535;28;20432;-73
2021/08/31 07:32:14;;;;;;;9.40;7.90;;;;;;;;;;5032048;28;20972;-73
2021/08/31 07:34:40;;;;;;;12.80;9.47;;;;;;;;;;5030583;28;20463;-73
2021/08/31 07:37:06;;;;;;;11.10;8.23;;;;;;;;;;5031451;28;20451;-73
2021/08/31 07:39:33;;;;;;;9.10;8.00;;;;;;;;;;5041735;28;20415;-73
2021/08/31 07:41:59;;;;;;;9.40;8.40;;;;;;;;;;5047353;28;20878;-74
2021/08/31 07:44:25;;;;;;;9.37;8.00;;;;;;;;;;5032484;28;20818;-74
2021/08/31 07:46:51;;;;;;;9.93;8.33;;;;;;;;;;5038259;28;20458;-73
2021/08/31 07:49:17;;;;;;;8.47;7.60;;;;;;;;;;5035457;28;20468;-74
2021/08/31 07:51:43;;;;;;;11.53;8.20;;;;;;;;;;5031412;28;20510;-73
2021/08/31 07:54:10;;;;;;;12.13;9.37;;;;;;;;;;5031937;28;20530;-73
2021/08/31 07:56:36;;;;;;;8.23;7.43;;;;;;;;;;5029155;28;20428;-73
2021/08/31 07:59:02;;;;;;;10.73;7.27;;;;;;;;;;5029919;28;20443;-73
2021/08/31 08:01:30;;;;;;;10.77;6.83;;;;;;;;;;5030533;28;21240;-73
2021/08/31 08:03:56;;;;;;;8.73;7.40;;;;;;;;;;5031832;28;21239;-73
2021/08/31 08:06:22;;;;;;;9.77;8.50;;;;;;;;;;5031389;28;20850;-74
2021/08/31 08:08:48;;;;;;;8.00;7.20;;;;;;;;;;5031282;28;20468;-72
2021/08/31 08:11:14;;;;;;;7.20;6.50;;;;;;;;;;5031619;28;20467;-72
2021/08/31 08:13:40;;;;;;;8.80;7.20;;;;;;;;;;5028515;28;20820;-73
2021/08/31 08:16:06;;;;;;;8.23;6.67;;;;;;;;;;5031837;28;20429;-73
2021/08/31 08:18:32;;;;;;;6.90;6.20;;;;;;;;;;5030565;28;20502;-73
2021/08/31 08:20:58;;;;;;;7.63;5.93;;;;;;;;;;5031257;28;20413;-73
2021/08/31 08:23:24;;;;;;;7.07;5.97;;;;;;;;;;5021041;28;20942;-73
2021/08/31 08:25:50;;;;;;;7.00;6.27;;;;;;;;;;5030808;28;20812;-73
2021/08/31 08:28:16;;;;;;;7.80;6.43;;;;;;;;;;5040323;28;20456;-72
2021/08/31 08:30:42;;;;;;;8.43;6.37;;;;;;;;;;5030964;28;20434;-73
2021/08/31 08:33:08;;;;;;;6.47;5.87;;;;;;;;;;5031199;28;20466;-73
2021/08/31 08:35:34;;;;;;;6.50;5.77;;;;;;;;;;5030873;28;20428;-73
2021/08/31 08:38:01;;;;;;;6.57;5.90;;;;;;;;;;5021813;28;20529;-73
2021/08/31 08:40:28;;;;;;;5.90;5.13;;;;;;;;;;5040764;28;20485;-74
2021/08/31 08:42:54;;;;;;;5.37;4.87;;;;;;;;;;5031160;28;20426;-73
2021/08/31 08:45:21;;;;;;;7.30;5.40;;;;;;;;;;5017442;28;20481;-73
2021/08/31 08:47:47;;;;;;;6.23;5.40;;;;;;;;;;5026804;28;20441;-73
2021/08/31 08:50:13;;;;;;;5.93;5.07;;;;;;;;;;5030357;28;20513;-73
2021/08/31 08:52:40;;;;;;;5.53;5.03;;;;;;;;;;5030747;28;20489;-74
2021/08/31 08:55:10;;;;;;;5.53;4.77;;;;;;;;;;5030671;28;20431;-73
2021/08/31 08:57:36;;;;;;;5.80;5.30;;;;;;;;;;5044622;28;20439;-73
2021/08/31 09:00:03;;;;;;;6.97;5.23;;;;;;;;;;5022444;28;20912;-74
2021/08/31 09:02:31;;;;;;;7.20;5.90;;;;;;;;;;5029900;28;20490;-73
2021/08/31 09:04:57;;;;;;;7.73;5.57;;;;;;;;;;5030563;28;21088;-73
2021/08/31 09:07:28;;;;;;;5.43;5.00;;;;;;;;;;5028555;28;20521;-73
2021/08/31 09:10:11;;;;;;;4.63;4.13;;;;;;;;;;5036181;28;20439;-74
2021/08/31 09:12:37;;;;;;;7.43;5.60;;;;;;;;;;5026474;28;20469;-73
2021/08/31 09:15:29;;;;;;;6.00;4.97;;;;;;;;;;5025673;28;20439;-73
2021/08/31 09:20:34;;;;;;;5.07;4.57;;;;;;;;;;5028752;28;20846;-73
2021/08/31 09:23:00;;;;;;;5.43;4.93;;;;;;;;;;5029592;28;20421;-73
2021/08/31 09:25:37;;;;;;;5.07;4.67;;;;;;;;;;5022754;28;20436;-73
2021/08/31 09:28:17;;;;;;;6.07;5.47;;;;;;;;;;5018357;28;20457;-72
2021/08/31 09:30:43;;;;;;;5.80;5.30;;;;;;;;;;5029822;28;20436;-72
2021/08/31 09:33:12;;;;;;;6.40;5.13;;;;;;;;;;5050108;28;20477;-72
2021/08/31 09:35:39;;;;;;;5.80;4.93;;;;;;;;;;5032078;28;20428;-73
2021/08/31 09:38:06;;;;;;;4.93;4.53;;;;;;;;;;5029606;28;20552;-73
2021/08/31 09:40:37;;;;;;;5.53;5.03;;;;;;;;;;5029313;28;20464;-73
2021/08/31 09:43:05;;;;;;;4.93;4.53;;;;;;;;;;5029744;28;20456;-73
2021/08/31 09:45:35;;;;;;;5.40;4.90;;;;;;;;;;5031877;28;20432;-73
2021/08/31 09:48:02;;;;;;;4.97;4.47;;;;;;;;;;5049038;28;20526;-73
2021/08/31 09:50:38;;;;;;;5.17;4.67;;;;;;;;;;5019511;28;20450;-74
2021/08/31 09:53:06;;;;;;;6.17;5.60;;;;;;;;;;5049746;28;20979;-73
2021/08/31 09:55:33;;;;;;;5.10;4.70;;;;;;;;;;5029117;28;20427;-73
2021/08/31 09:58:11;;;;;;;4.90;4.50;;;;;;;;;;5042358;28;20443;-73
2021/08/31 10:00:38;;;;;;;4.87;4.47;;;;;;;;;;5028205;28;20424;-73
2021/08/31 10:03:04;;;;;;;4.27;3.97;;;;;;;;;;5025518;28;20432;-73
2021/08/31 10:05:31;;;;;;;5.10;4.60;;;;;;;;;;5033858;28;20443;-73
2021/08/31 10:07:57;;;;;;;4.50;4.20;;;;;;;;;;5035558;28;20436;-72
2021/08/31 10:10:26;;;;;;;4.97;4.57;;;;;;;;;;5029268;28;20892;-73
2021/08/31 10:12:53;;;;;;;5.80;5.30;;;;;;;;;;5029501;28;20471;-73
2021/08/31 10:15:23;;;;;;;4.80;4.50;;;;;;;;;;5029310;28;20494;-73
2021/08/31 10:17:51;;;;;;;4.47;4.17;;;;;;;;;;5020545;28;20961;-73
2021/08/31 10:20:19;;;;;;;5.77;5.27;;;;;;;;;;5033526;28;20455;-73
2021/08/31 10:22:46;;;;;;;4.63;4.30;;;;;;;;;;5029867;28;21085;-72
2021/08/31 10:25:12;;;;;;;4.57;4.17;;;;;;;;;;5028925;28;20843;-73
2021/08/31 10:27:44;;;;;;;5.00;4.60;;;;;;;;;;5028787;28;20454;-74
2021/08/31 10:30:22;;;;;;;4.63;4.23;;;;;;;;;;5028764;28;21144;-72
2021/08/31 10:32:49;;;;;;;5.20;4.77;;;;;;;;;;5027752;28;20467;-72
2021/08/31 10:35:39;;;;;;;6.13;5.47;;;;;;;;;;5029282;28;20490;-74
2021/08/31 10:38:10;;;;;;;6.07;5.47;;;;;;;;;;5028778;28;20535;-72
2021/08/31 10:40:43;;;;;;;5.20;4.80;;;;;;;;;;5025358;28;20432;-73
2021/08/31 10:43:10;;;;;;;5.60;5.10;;;;;;;;;;5027822;28;20424;-73
2021/08/31 10:45:40;;;;;;;5.50;5.10;;;;;;;;;;5025912;28;21063;-73
2021/08/31 10:48:22;;;;;;;5.73;5.13;;;;;;;;;;5027884;28;20483;-73
2021/08/31 10:51:10;;;;;;;5.53;5.03;;;;;;;;;;5028994;28;20503;-73
2021/08/31 10:53:44;;;;;;;7.03;5.00;;;;;;;;;;5029283;28;20831;-74
2021/08/31 10:56:22;;;;;;;7.10;5.43;;;;;;;;;;5035469;28;20443;-71
2021/08/31 10:58:51;;;;;;;5.20;4.70;;;;;;;;;;5047626;28;20432;-73
2021/08/31 11:01:18;;;;;;;5.97;5.33;;;;;;;;;;5018478;28;20474;-73
2021/08/31 11:03:44;;;;;;;5.63;5.23;;;;;;;;;;5023238;28;20440;-74
2021/08/31 11:06:18;;;;;;;6.10;5.60;;;;;;;;;;5032758;28;20497;-71
2021/08/31 11:08:44;;;;;;;5.00;4.60;;;;;;;;;;5033525;28;20837;-71
2021/08/31 11:11:17;;;;;;;5.00;4.60;;;;;;;;;;5032726;28;20464;-72
2021/08/31 11:13:56;;;;;;;5.30;4.80;;;;;;;;;;5032286;28;20840;-71
2021/08/31 11:16:30;;;;;;;5.07;4.67;;;;;;;;;;5031220;28;21744;-71
2021/08/31 11:18:56;;;;;;;5.40;5.00;;;;;;;;;;5019313;28;20413;-71
2021/08/31 11:21:22;;;;;;;4.93;4.53;;;;;;;;;;5032495;28;21048;-71
2021/08/31 11:23:48;;;;;;;5.00;4.50;;;;;;;;;;5032061;28;20428;-72
2021/08/31 11:26:28;;;;;;;4.83;4.53;;;;;;;;;;5032049;28;20416;-71
2021/08/31 11:28:54;;;;;;;4.77;4.37;;;;;;;;;;5031481;28;20785;-72
2021/08/31 11:31:25;;;;;;;4.93;4.50;;;;;;;;;;5028050;28;20469;-71
2021/08/31 11:33:53;;;;;;;4.87;4.47;;;;;;;;;;5023377;28;20427;-71
2021/08/31 11:36:21;;;;;;;4.40;4.10;;;;;;;;;;5032109;28;20424;-73
2021/08/31 11:38:47;;;;;;;4.80;4.40;;;;;;;;;;5031864;28;20432;-71
2021/08/31 11:41:25;;;;;;;5.40;4.97;;;;;;;;;;5032222;28;20787;-70
2021/08/31 11:43:51;;;;;;;4.50;4.20;;;;;;;;;;5032289;28;20523;-72
2021/08/31 11:46:23;;;;;;;4.60;4.20;;;;;;;;;;5031797;28;21214;-70
2021/08/31 11:48:49;;;;;;;5.10;4.70;;;;;;;;;;5039673;28;20448;-71
2021/08/31 11:51:20;;;;;;;5.03;4.73;;;;;;;;;;5031566;28;20468;-72
2021/08/31 11:53:48;;;;;;;5.30;4.80;;;;;;;;;;5031891;28;20910;-73
2021/08/31 11:56:14;;;;;;;5.17;4.73;;;;;;;;;;5034620;28;20431;-72
2021/08/31 11:58:41;;;;;;;4.53;4.23;;;;;;;;;;5051434;28;20791;-72
2021/08/31 12:01:07;;;;;;;4.40;4.00;;;;;;;;;;5047218;28;20442;-72
2021/08/31 12:03:34;;;;;;;5.33;4.93;;;;;;;;;;5051932;28;20419;-70
2021/08/31 12:06:00;;;;;;;5.00;4.60;;;;;;;;;;5034023;28;21189;-71
2021/08/31 12:08:26;;;;;;;5.03;4.47;;;;;;;;;;5027019;28;20463;-72
2021/08/31 12:10:54;;;;;;;5.10;4.60;;;;;;;;;;5039970;28;20421;-73
2021/08/31 12:13:21;;;;;;;5.10;4.70;;;;;;;;;;5040893;28;20450;-70
2021/08/31 12:15:48;;;;;;;7.43;4.90;;;;;;;;;;5034269;28;20408;-72
2021/08/31 12:18:17;;;;;;;5.07;4.67;;;;;;;;;;5036654;28;20452;-69
2021/08/31 12:20:43;;;;;;;4.90;4.50;;;;;;;;;;5033200;28;21106;-71
2021/08/31 12:23:10;;;;;;;5.00;4.60;;;;;;;;;;5038754;28;20431;-70
2021/08/31 12:25:51;;;;;;;4.83;4.43;;;;;;;;;;5039129;28;20509;-73
2021/08/31 12:28:20;;;;;;;5.40;5.00;;;;;;;;;;5023141;28;20535;-71
2021/08/31 12:30:47;;;;;;;5.53;5.13;;;;;;;;;;5035496;28;20434;-71
2021/08/31 12:33:14;;;;;;;5.63;5.13;;;;;;;;;;5050906;28;20554;-71
2021/08/31 12:38:11;;;;;;;5.17;4.77;;;;;;;;;;5030367;28;20512;-69
2021/08/31 12:40:39;;;;;;;5.20;4.70;;;;;;;;;;5028119;28;20426;-71
2021/08/31 12:43:05;;;;;;;5.50;5.00;;;;;;;;;;5050968;28;20470;-73
2021/08/31 12:45:33;;;;;;;5.57;5.17;;;;;;;;;;5028183;28;20428;-71
2021/08/31 12:47:59;;;;;;;5.37;4.97;;;;;;;;;;5048667;28;20554;-71
2021/08/31 12:50:27;;;;;;;5.13;4.73;;;;;;;;;;5029248;28;20871;-71
2021/08/31 12:53:05;;;;;;;5.20;4.70;;;;;;;;;;5030819;28;20464;-71
2021/08/31 12:55:32;;;;;;;5.53;5.13;;;;;;;;;;5030671;28;20520;-70
2021/08/31 12:58:17;;;;;;;5.30;4.90;;;;;;;;;;5036299;28;20439;-73
2021/08/31 13:00:43;;;;;;;5.30;4.80;;;;;;;;;;5026866;28;20425;-73
2021/08/31 13:03:09;;;;;;;5.50;5.00;;;;;;;;;;5026545;28;20428;-71
2021/08/31 13:05:35;;;;;;;5.47;5.07;;;;;;;;;;5026992;28;20444;-72
2021/08/31 13:08:06;;;;;;;5.50;5.00;;;;;;;;;;5025154;28;20495;-70
2021/08/31 13:10:32;;;;;;;5.37;4.87;;;;;;;;;;5022563;28;21261;-72
2021/08/31 13:12:58;;;;;;;5.43;4.93;;;;;;;;;;5038667;28;20563;-73
2021/08/31 13:15:25;;;;;;;5.47;5.00;;;;;;;;;;5027784;28;20428;-72
2021/08/31 13:17:51;;;;;;;5.13;4.73;;;;;;;;;;5050098;28;20489;-72
2021/08/31 13:20:17;;;;;;;5.50;5.00;;;;;;;;;;5029898;28;20429;-73
2021/08/31 13:22:45;;;;;;;5.17;4.77;;;;;;;;;;5029972;28;20945;-71
2021/08/31 13:25:11;;;;;;;5.10;4.70;;;;;;;;;;5025138;28;20433;-70
2021/08/31 13:27:37;;;;;;;8.00;5.00;;;;;;;;;;5029048;28;20536;-72
2021/08/31 13:30:03;;;;;;;5.50;5.00;;;;;;;;;;5030153;28;20511;-73
2021/08/31 13:32:29;;;;;;;5.00;4.50;;;;;;;;;;5029834;28;20824;-71
2021/08/31 13:34:55;;;;;;;5.50;5.10;;;;;;;;;;5029554;28;20485;-71
2021/08/31 13:37:21;;;;;;;4.67;4.27;;;;;;;;;;5027618;28;20451;-71
2021/08/31 13:39:47;;;;;;;5.50;4.93;;;;;;;;;;5040730;28;20944;-72
2021/08/31 13:42:13;;;;;;;5.27;4.77;;;;;;;;;;5029693;28;20467;-72
2021/08/31 13:44:39;;;;;;;7.37;5.07;;;;;;;;;;5049640;28;20521;-73
2021/08/31 13:47:05;;;;;;;5.77;5.37;;;;;;;;;;5031711;28;20452;-71
2021/08/31 13:49:31;;;;;;;5.27;4.73;;;;;;;;;;5026381;28;20432;-70
2021/08/31 13:51:58;;;;;;;5.33;4.83;;;;;;;;;;5025730;28;20515;-73
2021/08/31 13:54:24;;;;;;;6.13;5.60;;;;;;;;;;5029357;28;20457;-71
2021/08/31 13:56:50;;;;;;;5.27;4.83;;;;;;;;;;5026382;28;20438;-70
2021/08/31 13:59:16;;;;;;;5.77;5.23;;;;;;;;;;5024905;28;20781;-72
2021/08/31 14:01:42;;;;;;;6.13;5.63;;;;;;;;;;5027697;28;20459;-69
2021/08/31 14:04:08;;;;;;;5.57;4.90;;;;;;;;;;5029405;28;20420;-73
2021/08/31 14:06:34;;;;;;;6.70;6.10;;;;;;;;;;5023552;28;20451;-71
2021/08/31 14:09:00;;;;;;;5.87;5.37;;;;;;;;;;5024349;28;20779;-71
2021/08/31 14:11:26;;;;;;;7.20;6.27;;;;;;;;;;5028964;28;20476;-70
2021/08/31 14:13:52;;;;;;;6.00;5.43;;;;;;;;;;5028126;28;20433;-70
2021/08/31 14:16:18;;;;;;;5.77;5.17;;;;;;;;;;5023174;28;20476;-71
2021/08/31 14:18:45;;;;;;;6.57;6.03;;;;;;;;;;5046228;28;20471;-71
2021/08/31 14:21:11;;;;;;;6.13;5.63;;;;;;;;;;5029216;28;20428;-70
2021/08/31 14:23:38;;;;;;;6.30;5.67;;;;;;;;;;5029236;28;20471;-73
2021/08/31 14:26:04;;;;;;;5.97;5.47;;;;;;;;;;5026815;28;20428;-73
2021/08/31 14:28:30;;;;;;;5.60;5.17;;;;;;;;;;5046090;28;20432;-74
2021/08/31 14:30:57;;;;;;;5.60;5.20;;;;;;;;;;5029261;28;20747;-72
2021/08/31 14:33:23;;;;;;;5.47;4.97;;;;;;;;;;5037683;28;20463;-71
2021/08/31 14:35:49;;;;;;;5.50;5.10;;;;;;;;;;5047221;28;20845;-73